createdAt,value
2018-07-26T00:00:34.933Z,0
2018-07-26T00:01:35.214Z,0
2018-07-26T00:02:35.504Z,0
2018-07-26T00:03:35.528Z,0
2018-07-26T00:04:35.562Z,0
2018-07-26T00:05:35.592Z,0
2018-07-26T00:06:35.357Z,0
2018-07-26T00:07:35.645Z,0
2018-07-26T00:08:35.672Z,0
2018-07-26T00:09:35.442Z,0
2018-07-26T00:10:35.735Z,0
2018-07-26T00:11:35.501Z,0
2018-07-26T00:12:35.527Z,0
2018-07-26T00:13:35.816Z,0
2018-07-26T00:14:35.850Z,0
2018-07-26T00:15:35.879Z,0
2018-07-26T00:16:35.648Z,0
2018-07-26T00:17:35.680Z,0
2018-07-26T00:18:35.967Z,0
2018-07-26T00:19:35.727Z,0
2018-07-26T00:20:36.017Z,0
2018-07-26T00:21:36.235Z,0
2018-07-26T00:22:35.826Z,0
2018-07-26T00:23:35.840Z,0
2018-07-26T00:24:35.610Z,0
2018-07-26T00:25:36.161Z,0
2018-07-26T00:26:36.194Z,0
2018-07-26T00:27:35.798Z,0
2018-07-26T00:28:35.992Z,0
2018-07-26T00:29:36.273Z,0
2018-07-26T00:30:36.307Z,0
2018-07-26T00:31:36.328Z,0
2018-07-26T00:32:36.359Z,0
2018-07-26T00:33:36.385Z,0
2018-07-26T00:34:36.203Z,0
2018-07-26T00:35:36.217Z,0
2018-07-26T00:36:36.474Z,0
2018-07-26T00:37:36.239Z,0
2018-07-26T00:38:36.528Z,0
2018-07-26T00:39:36.557Z,0
2018-07-26T00:40:36.588Z,0
2018-07-26T00:41:36.612Z,0
2018-07-26T00:42:36.381Z,0
2018-07-26T00:43:36.680Z,0
2018-07-26T00:44:36.698Z,0
2018-07-26T00:45:36.469Z,0
2018-07-26T00:46:36.756Z,0
2018-07-26T00:47:36.780Z,0
2018-07-26T00:48:36.877Z,0
2018-07-26T00:49:36.579Z,0
2018-07-26T00:50:36.348Z,0
2018-07-26T00:51:36.896Z,0
2018-07-26T00:52:36.923Z,0
2018-07-26T00:53:36.965Z,0
2018-07-26T00:54:36.455Z,0
2018-07-26T00:55:37.001Z,0
2018-07-26T00:56:37.047Z,0
2018-07-26T00:57:37.060Z,0
2018-07-26T00:58:37.100Z,0
2018-07-26T00:59:36.855Z,0
2018-07-26T01:00:37.147Z,0
2018-07-26T01:01:36.921Z,0
2018-07-26T01:02:37.211Z,0
2018-07-26T01:03:36.974Z,0
2018-07-26T01:04:37.260Z,0
2018-07-26T01:05:37.292Z,0
2018-07-26T01:06:36.792Z,0
2018-07-26T01:07:37.339Z,0
2018-07-26T01:08:37.114Z,0
2018-07-26T01:09:37.275Z,0
2018-07-26T01:10:37.424Z,0
2018-07-26T01:11:36.674Z,0
2018-07-26T01:12:37.482Z,0
2018-07-26T01:13:37.507Z,0
2018-07-26T01:14:37.541Z,0
2018-07-26T01:15:37.314Z,0
2018-07-26T01:16:37.596Z,0
2018-07-26T01:17:37.107Z,0
2018-07-26T01:18:37.389Z,0
2018-07-26T01:19:37.678Z,0
2018-07-26T01:20:37.449Z,0
2018-07-26T01:21:37.477Z,0
2018-07-26T01:22:37.237Z,0
2018-07-26T01:23:37.527Z,0
2018-07-26T01:24:37.556Z,0
2018-07-26T01:25:37.844Z,0
2018-07-26T01:26:37.608Z,0
2018-07-26T01:27:37.632Z,0
2018-07-26T01:28:37.930Z,0
2018-07-26T01:29:37.953Z,0
2018-07-26T01:30:37.721Z,0
2018-07-26T01:31:37.756Z,0
2018-07-26T01:32:38.037Z,0
2018-07-26T01:33:38.079Z,0
2018-07-26T01:34:38.095Z,0
2018-07-26T01:35:38.118Z,0
2018-07-26T01:36:37.888Z,0
2018-07-26T01:37:37.915Z,0
2018-07-26T01:38:37.683Z,0
2018-07-26T01:39:38.232Z,0
2018-07-26T01:40:37.999Z,0
2018-07-26T01:41:38.022Z,0
2018-07-26T01:42:38.053Z,0
2018-07-26T01:43:38.340Z,0
2018-07-26T01:44:38.101Z,0
2018-07-26T01:45:38.393Z,0
2018-07-26T01:46:38.170Z,0
2018-07-26T01:47:37.925Z,0
2018-07-26T01:48:38.472Z,0
2018-07-26T01:49:38.246Z,0
2018-07-26T01:50:38.535Z,0
2018-07-26T01:51:38.301Z,0
2018-07-26T01:52:38.064Z,0
2018-07-26T01:53:38.092Z,0
2018-07-26T01:54:38.642Z,0
2018-07-26T01:55:38.448Z,0
2018-07-26T01:56:38.698Z,0
2018-07-26T01:57:38.497Z,0
2018-07-26T01:58:38.483Z,0
2018-07-26T01:59:38.252Z,0
2018-07-26T02:00:38.285Z,0
2018-07-26T02:01:38.690Z,0
2018-07-26T02:02:38.595Z,0
2018-07-26T02:03:38.625Z,0
2018-07-26T02:04:38.391Z,0
2018-07-26T02:05:38.941Z,0
2018-07-26T02:06:38.980Z,0
2018-07-26T02:07:38.738Z,0
2018-07-26T02:08:38.511Z,0
2018-07-26T02:09:39.061Z,0
2018-07-26T02:10:39.131Z,0
2018-07-26T02:11:39.100Z,0
2018-07-26T02:12:38.867Z,0
2018-07-26T02:13:39.172Z,0
2018-07-26T02:14:38.920Z,0
2018-07-26T02:15:38.968Z,0
2018-07-26T02:16:39.250Z,0
2018-07-26T02:17:39.023Z,0
2018-07-26T02:18:39.033Z,0
2018-07-26T02:19:39.343Z,0
2018-07-26T02:20:39.088Z,0
2018-07-26T02:21:39.369Z,0
2018-07-26T02:22:39.139Z,0
2018-07-26T02:23:39.428Z,0
2018-07-26T02:24:39.187Z,0
2018-07-26T02:25:39.481Z,0
2018-07-26T02:26:38.980Z,0
2018-07-26T02:27:39.021Z,0
2018-07-26T02:28:39.040Z,0
2018-07-26T02:29:39.594Z,0
2018-07-26T02:30:39.351Z,0
2018-07-26T02:31:39.380Z,0
2018-07-26T02:32:39.667Z,0
2018-07-26T02:33:39.446Z,0
2018-07-26T02:34:39.459Z,0
2018-07-26T02:35:39.755Z,0
2018-07-26T02:36:39.569Z,0
2018-07-26T02:37:39.544Z,0
2018-07-26T02:38:39.828Z,0
2018-07-26T02:39:39.601Z,0
2018-07-26T02:40:39.883Z,0
2018-07-26T02:41:39.646Z,0
2018-07-26T02:42:39.936Z,0
2018-07-26T02:43:39.701Z,0
2018-07-26T02:44:39.988Z,0
2018-07-26T02:45:39.758Z,0
2018-07-26T02:46:39.782Z,0
2018-07-26T02:47:40.091Z,0
2018-07-26T02:48:39.574Z,0
2018-07-26T02:49:40.122Z,0
2018-07-26T02:50:39.636Z,0
2018-07-26T02:51:40.178Z,0
2018-07-26T02:52:39.945Z,0
2018-07-26T02:53:39.710Z,0
2018-07-26T02:54:39.736Z,0
2018-07-26T02:55:40.018Z,0
2018-07-26T02:56:40.043Z,0
2018-07-26T02:57:40.337Z,0
2018-07-26T02:58:40.371Z,0
2018-07-26T02:59:40.394Z,0
2018-07-26T03:00:40.163Z,0
2018-07-26T03:01:40.442Z,4
2018-07-26T03:02:40.220Z,4
2018-07-26T03:03:40.231Z,0
2018-07-26T03:04:40.259Z,0
2018-07-26T03:05:40.555Z,4
2018-07-26T03:06:40.059Z,4
2018-07-26T03:07:40.604Z,4
2018-07-26T03:08:40.637Z,4
2018-07-26T03:09:40.656Z,4
2018-07-26T03:10:40.712Z,8
2018-07-26T03:11:40.470Z,4
2018-07-26T03:12:40.238Z,8
2018-07-26T03:13:40.244Z,8
2018-07-26T03:14:40.783Z,8
2018-07-26T03:15:40.819Z,12
2018-07-26T03:16:40.853Z,8
2018-07-26T03:17:40.610Z,12
2018-07-26T03:18:40.367Z,12
2018-07-26T03:19:40.939Z,16
2018-07-26T03:20:40.952Z,12
2018-07-26T03:21:40.978Z,16
2018-07-26T03:22:40.732Z,16
2018-07-26T03:23:40.767Z,16
2018-07-26T03:24:40.791Z,20
2018-07-26T03:25:40.817Z,20
2018-07-26T03:26:41.110Z,24
2018-07-26T03:27:40.607Z,28
2018-07-26T03:28:41.160Z,28
2018-07-26T03:29:40.924Z,28
2018-07-26T03:30:40.948Z,36
2018-07-26T03:31:40.973Z,36
2018-07-26T03:32:40.996Z,36
2018-07-26T03:33:41.027Z,40
2018-07-26T03:34:41.051Z,40
2018-07-26T03:35:41.346Z,44
2018-07-26T03:36:41.356Z,48
2018-07-26T03:37:41.085Z,48
2018-07-26T03:38:40.895Z,52
2018-07-26T03:39:41.440Z,52
2018-07-26T03:40:41.469Z,56
2018-07-26T03:41:41.493Z,60
2018-07-26T03:42:40.999Z,64
2018-07-26T03:43:42.019Z,64
2018-07-26T03:44:41.576Z,68
2018-07-26T03:45:41.330Z,72
2018-07-26T03:46:41.630Z,76
2018-07-26T03:47:41.390Z,76
2018-07-26T03:48:41.671Z,80
2018-07-26T03:49:41.702Z,84
2018-07-26T03:50:41.722Z,88
2018-07-26T03:51:41.751Z,88
2018-07-26T03:52:41.851Z,88
2018-07-26T03:53:41.804Z,96
2018-07-26T03:54:41.568Z,96
2018-07-26T03:55:41.333Z,100
2018-07-26T03:56:41.884Z,100
2018-07-26T03:57:41.906Z,108
2018-07-26T03:58:41.937Z,108
2018-07-26T03:59:41.964Z,108
2018-07-26T04:00:41.736Z,116
2018-07-26T04:01:41.490Z,116
2018-07-26T04:02:41.781Z,116
2018-07-26T04:03:42.066Z,124
2018-07-26T04:04:42.087Z,124
2018-07-26T04:05:42.001Z,124
2018-07-26T04:06:42.144Z,128
2018-07-26T04:07:41.916Z,128
2018-07-26T04:08:42.202Z,136
2018-07-26T04:09:42.219Z,136
2018-07-26T04:10:42.240Z,140
2018-07-26T04:11:42.013Z,140
2018-07-26T04:12:41.773Z,144
2018-07-26T04:13:42.318Z,144
2018-07-26T04:14:42.355Z,148
2018-07-26T04:15:42.115Z,148
2018-07-26T04:16:42.406Z,152
2018-07-26T04:17:42.442Z,152
2018-07-26T04:18:42.470Z,156
2018-07-26T04:19:42.216Z,156
2018-07-26T04:20:42.245Z,160
2018-07-26T04:21:42.270Z,160
2018-07-26T04:22:42.291Z,164
2018-07-26T04:23:42.321Z,164
2018-07-26T04:24:42.614Z,168
2018-07-26T04:25:42.639Z,164
2018-07-26T04:26:42.676Z,168
2018-07-26T04:27:42.163Z,172
2018-07-26T04:28:42.716Z,172
2018-07-26T04:29:42.222Z,176
2018-07-26T04:30:42.505Z,176
2018-07-26T04:31:42.830Z,176
2018-07-26T04:32:42.808Z,180
2018-07-26T04:33:42.767Z,180
2018-07-26T04:34:42.603Z,184
2018-07-26T04:35:42.891Z,184
2018-07-26T04:36:42.913Z,184
2018-07-26T04:37:42.683Z,188
2018-07-26T04:38:42.716Z,188
2018-07-26T04:39:42.991Z,188
2018-07-26T04:40:42.505Z,192
2018-07-26T04:41:43.051Z,192
2018-07-26T04:42:43.079Z,196
2018-07-26T04:43:43.095Z,196
2018-07-26T04:44:42.854Z,196
2018-07-26T04:45:43.164Z,200
2018-07-26T04:46:42.921Z,200
2018-07-26T04:47:43.195Z,204
2018-07-26T04:48:42.961Z,200
2018-07-26T04:49:42.997Z,204
2018-07-26T04:50:43.091Z,204
2018-07-26T04:51:43.040Z,208
2018-07-26T04:52:43.431Z,208
2018-07-26T04:53:43.094Z,212
2018-07-26T04:54:43.748Z,212
2018-07-26T04:55:42.881Z,216
2018-07-26T04:56:43.171Z,212
2018-07-26T04:57:43.192Z,216
2018-07-26T04:58:43.218Z,220
2018-07-26T04:59:43.247Z,220
2018-07-26T05:00:43.268Z,220
2018-07-26T05:01:43.562Z,220
2018-07-26T05:02:43.315Z,224
2018-07-26T05:03:43.349Z,224
2018-07-26T05:04:43.634Z,224
2018-07-26T05:05:43.660Z,228
2018-07-26T05:06:43.167Z,228
2018-07-26T05:07:43.449Z,228
2018-07-26T05:08:43.732Z,232
2018-07-26T05:09:43.767Z,232
2018-07-26T05:10:43.526Z,232
2018-07-26T05:11:43.289Z,232
2018-07-26T05:12:43.322Z,236
2018-07-26T05:13:43.342Z,236
2018-07-26T05:14:43.628Z,236
2018-07-26T05:15:43.654Z,240
2018-07-26T05:16:43.692Z,240
2018-07-26T05:17:43.707Z,240
2018-07-26T05:18:44.141Z,240
2018-07-26T05:19:43.497Z,244
2018-07-26T05:20:44.034Z,244
2018-07-26T05:21:44.072Z,244
2018-07-26T05:22:44.091Z,244
2018-07-26T05:23:43.855Z,248
2018-07-26T05:24:43.879Z,244
2018-07-26T05:25:43.910Z,248
2018-07-26T05:26:43.955Z,252
2018-07-26T05:27:44.425Z,248
2018-07-26T05:28:43.869Z,252
2018-07-26T05:29:44.030Z,252
2018-07-26T05:30:44.033Z,252
2018-07-26T05:31:44.325Z,256
2018-07-26T05:32:44.077Z,256
2018-07-26T05:33:44.115Z,256
2018-07-26T05:34:44.417Z,256
2018-07-26T05:35:44.190Z,260
2018-07-26T05:36:44.182Z,256
2018-07-26T05:37:44.594Z,260
2018-07-26T05:38:43.715Z,260
2018-07-26T05:39:44.262Z,264
2018-07-26T05:40:44.593Z,260
2018-07-26T05:41:44.570Z,264
2018-07-26T05:42:44.335Z,264
2018-07-26T05:43:44.113Z,264
2018-07-26T05:44:44.395Z,268
2018-07-26T05:45:44.160Z,264
2018-07-26T05:46:44.702Z,264
2018-07-26T05:47:44.738Z,268
2018-07-26T05:48:44.757Z,272
2018-07-26T05:49:44.513Z,268
2018-07-26T05:50:44.545Z,272
2018-07-26T05:51:44.612Z,272
2018-07-26T05:52:44.855Z,272
2018-07-26T05:53:44.886Z,276
2018-07-26T05:54:44.911Z,276
2018-07-26T05:55:44.926Z,276
2018-07-26T05:56:44.693Z,276
2018-07-26T05:57:44.718Z,280
2018-07-26T05:58:44.750Z,280
2018-07-26T05:59:44.771Z,276
2018-07-26T06:00:45.059Z,280
2018-07-26T06:01:45.081Z,280
2018-07-26T06:02:45.107Z,280
2018-07-26T06:03:44.610Z,280
2018-07-26T06:04:44.899Z,280
2018-07-26T06:05:44.926Z,284
2018-07-26T06:06:45.209Z,284
2018-07-26T06:07:45.236Z,284
2018-07-26T06:08:45.258Z,284
2018-07-26T06:09:45.575Z,288
2018-07-26T06:10:45.052Z,284
2018-07-26T06:11:45.080Z,288
2018-07-26T06:12:44.841Z,288
2018-07-26T06:13:45.124Z,292
2018-07-26T06:14:45.408Z,292
2018-07-26T06:15:45.175Z,292
2018-07-26T06:16:45.203Z,292
2018-07-26T06:17:45.230Z,292
2018-07-26T06:18:45.518Z,296
2018-07-26T06:19:45.540Z,296
2018-07-26T06:20:45.542Z,296
2018-07-26T06:21:45.598Z,300
2018-07-26T06:22:45.352Z,296
2018-07-26T06:23:45.642Z,300
2018-07-26T06:24:45.409Z,300
2018-07-26T06:25:45.168Z,300
2018-07-26T06:26:45.198Z,304
2018-07-26T06:27:45.540Z,304
2018-07-26T06:28:45.774Z,304
2018-07-26T06:29:45.535Z,308
2018-07-26T06:30:45.297Z,304
2018-07-26T06:31:45.584Z,308
2018-07-26T06:32:45.870Z,312
2018-07-26T06:33:46.117Z,308
2018-07-26T06:34:45.663Z,308
2018-07-26T06:35:45.426Z,312
2018-07-26T06:36:45.711Z,312
2018-07-26T06:37:45.739Z,312
2018-07-26T06:38:45.757Z,316
2018-07-26T06:39:46.059Z,320
2018-07-26T06:40:46.082Z,316
2018-07-26T06:41:45.579Z,316
2018-07-26T06:42:46.126Z,320
2018-07-26T06:43:45.901Z,316
2018-07-26T06:44:45.918Z,320
2018-07-26T06:45:46.203Z,320
2018-07-26T06:46:46.225Z,320
2018-07-26T06:47:46.004Z,324
2018-07-26T06:48:46.024Z,324
2018-07-26T06:49:46.040Z,324
2018-07-26T06:50:46.324Z,324
2018-07-26T06:51:46.351Z,324
2018-07-26T06:52:46.121Z,324
2018-07-26T06:53:46.153Z,328
2018-07-26T06:54:46.175Z,328
2018-07-26T06:55:45.937Z,328
2018-07-26T06:56:46.483Z,332
2018-07-26T06:57:46.507Z,328
2018-07-26T06:58:46.289Z,328
2018-07-26T06:59:46.299Z,332
2018-07-26T07:00:46.429Z,336
2018-07-26T07:01:46.357Z,336
2018-07-26T07:02:46.372Z,336
2018-07-26T07:03:46.664Z,332
2018-07-26T07:04:46.692Z,336
2018-07-26T07:05:46.460Z,340
2018-07-26T07:06:46.789Z,340
2018-07-26T07:07:46.771Z,336
2018-07-26T07:08:46.535Z,340
2018-07-26T07:09:46.565Z,344
2018-07-26T07:10:46.585Z,344
2018-07-26T07:11:46.869Z,344
2018-07-26T07:12:46.890Z,344
2018-07-26T07:13:46.402Z,344
2018-07-26T07:14:46.956Z,344
2018-07-26T07:15:46.454Z,344
2018-07-26T07:16:46.753Z,352
2018-07-26T07:17:46.770Z,352
2018-07-26T07:18:47.109Z,356
2018-07-26T07:19:47.080Z,356
2018-07-26T07:20:46.843Z,360
2018-07-26T07:21:46.608Z,360
2018-07-26T07:22:46.632Z,360
2018-07-26T07:23:47.186Z,368
2018-07-26T07:24:46.689Z,368
2018-07-26T07:25:47.232Z,372
2018-07-26T07:26:47.258Z,368
2018-07-26T07:27:47.453Z,376
2018-07-26T07:28:47.060Z,376
2018-07-26T07:29:47.353Z,376
2018-07-26T07:30:46.852Z,380
2018-07-26T07:31:47.129Z,380
2018-07-26T07:32:47.418Z,384
2018-07-26T07:33:47.187Z,384
2018-07-26T07:34:47.223Z,384
2018-07-26T07:35:47.492Z,380
2018-07-26T07:36:47.311Z,380
2018-07-26T07:37:47.311Z,376
2018-07-26T07:38:47.607Z,380
2018-07-26T07:39:47.628Z,384
2018-07-26T07:40:47.108Z,384
2018-07-26T07:41:47.837Z,392
2018-07-26T07:42:47.165Z,396
2018-07-26T07:43:47.709Z,400
2018-07-26T07:44:47.470Z,404
2018-07-26T07:45:47.501Z,408
2018-07-26T07:46:48.030Z,412
2018-07-26T07:47:47.930Z,416
2018-07-26T07:48:47.576Z,412
2018-07-26T07:49:47.868Z,416
2018-07-26T07:50:47.629Z,416
2018-07-26T07:51:47.658Z,420
2018-07-26T07:52:47.743Z,432
2018-07-26T07:53:47.970Z,436
2018-07-26T07:54:47.995Z,436
2018-07-26T07:55:47.761Z,436
2018-07-26T07:56:47.793Z,444
2018-07-26T07:57:48.080Z,448
2018-07-26T07:58:47.854Z,444
2018-07-26T07:59:48.353Z,448
2018-07-26T08:00:47.654Z,448
2018-07-26T08:01:48.189Z,440
2018-07-26T08:02:48.209Z,444
2018-07-26T08:03:48.234Z,460
2018-07-26T08:04:48.264Z,460
2018-07-26T08:05:48.028Z,472
2018-07-26T08:06:48.484Z,480
2018-07-26T08:07:48.346Z,492
2018-07-26T08:08:47.593Z,488
2018-07-26T08:09:48.135Z,496
2018-07-26T08:10:48.430Z,512
2018-07-26T08:11:48.196Z,512
2018-07-26T08:12:48.608Z,504
2018-07-26T08:13:48.514Z,520
2018-07-26T08:14:48.594Z,536
2018-07-26T08:15:48.569Z,536
2018-07-26T08:16:48.662Z,528
2018-07-26T08:17:48.106Z,536
2018-07-26T08:18:48.386Z,548
2018-07-26T08:19:48.423Z,560
2018-07-26T08:20:48.701Z,560
2018-07-26T08:21:48.465Z,568
2018-07-26T08:22:48.758Z,580
2018-07-26T08:23:48.261Z,580
2018-07-26T08:24:48.816Z,600
2018-07-26T08:25:48.577Z,612
2018-07-26T08:26:48.865Z,624
2018-07-26T08:27:48.890Z,628
2018-07-26T08:28:48.915Z,632
2018-07-26T08:29:48.425Z,640
2018-07-26T08:30:48.731Z,652
2018-07-26T08:31:48.746Z,644
2018-07-26T08:32:48.513Z,652
2018-07-26T08:33:48.795Z,656
2018-07-26T08:34:49.083Z,652
2018-07-26T08:35:49.111Z,652
2018-07-26T08:36:49.152Z,652
2018-07-26T08:37:48.919Z,656
2018-07-26T08:38:49.212Z,660
2018-07-26T08:39:49.224Z,664
2018-07-26T08:40:48.999Z,668
2018-07-26T08:41:49.285Z,684
2018-07-26T08:42:49.044Z,712
2018-07-26T08:43:48.555Z,896
2018-07-26T08:44:49.366Z,1004
2018-07-26T08:45:49.137Z,872
2018-07-26T08:46:49.162Z,752
2018-07-26T08:47:49.190Z,716
2018-07-26T08:48:49.218Z,784
2018-07-26T08:49:48.982Z,924
2018-07-26T08:50:49.278Z,896
2018-07-26T08:51:49.040Z,908
2018-07-26T08:52:49.591Z,796
2018-07-26T08:53:49.621Z,768
2018-07-26T08:54:49.392Z,764
2018-07-26T08:55:49.412Z,764
2018-07-26T08:56:49.444Z,760
2018-07-26T08:57:49.728Z,764
2018-07-26T08:58:49.762Z,764
2018-07-26T08:59:49.532Z,768
2018-07-26T09:00:49.566Z,772
2018-07-26T09:01:49.855Z,772
2018-07-26T09:02:50.020Z,780
2018-07-26T09:03:49.919Z,796
2018-07-26T09:04:49.681Z,804
2018-07-26T09:05:49.707Z,816
2018-07-26T09:06:49.730Z,824
2018-07-26T09:07:50.027Z,824
2018-07-26T09:08:49.795Z,832
2018-07-26T09:09:49.610Z,836
2018-07-26T09:10:50.201Z,836
2018-07-26T09:11:50.155Z,840
2018-07-26T09:12:50.170Z,832
2018-07-26T09:13:50.619Z,828
2018-07-26T09:14:49.969Z,832
2018-07-26T09:15:50.263Z,832
2018-07-26T09:16:50.282Z,844
2018-07-26T09:17:50.328Z,856
2018-07-26T09:18:50.344Z,868
2018-07-26T09:19:50.009Z,876
2018-07-26T09:20:50.403Z,884
2018-07-26T09:21:49.915Z,888
2018-07-26T09:22:50.470Z,900
2018-07-26T09:23:50.230Z,916
2018-07-26T09:24:50.262Z,924
2018-07-26T09:25:50.298Z,940
2018-07-26T09:26:50.349Z,952
2018-07-26T09:27:50.093Z,932
2018-07-26T09:28:50.731Z,948
2018-07-26T09:29:50.416Z,960
2018-07-26T09:30:50.704Z,980
2018-07-26T09:31:50.472Z,976
2018-07-26T09:32:50.524Z,984
2018-07-26T09:33:50.811Z,988
2018-07-26T09:34:50.825Z,992
2018-07-26T09:35:50.862Z,992
2018-07-26T09:36:50.627Z,1000
2018-07-26T09:37:50.912Z,1004
2018-07-26T09:38:50.945Z,1012
2018-07-26T09:39:50.975Z,1016
2018-07-26T09:40:50.746Z,1024
2018-07-26T09:41:50.782Z,1032
2018-07-26T09:42:50.804Z,1040
2018-07-26T09:43:50.832Z,1040
2018-07-26T09:44:51.132Z,1040
2018-07-26T09:45:51.171Z,1044
2018-07-26T09:46:50.930Z,1052
2018-07-26T09:47:51.221Z,1064
2018-07-26T09:48:50.995Z,1068
2018-07-26T09:49:51.257Z,1076
2018-07-26T09:50:51.315Z,1080
2018-07-26T09:51:51.356Z,1088
2018-07-26T09:52:51.115Z,1096
2018-07-26T09:53:51.148Z,1104
2018-07-26T09:54:51.475Z,1120
2018-07-26T09:55:51.210Z,1124
2018-07-26T09:56:51.498Z,1132
2018-07-26T09:57:51.012Z,1144
2018-07-26T09:58:51.569Z,1152
2018-07-26T09:59:51.592Z,1164
2018-07-26T10:00:51.630Z,1184
2018-07-26T10:01:51.658Z,1192
2018-07-26T10:02:51.686Z,1200
2018-07-26T10:03:51.461Z,1208
2018-07-26T10:04:51.762Z,1216
2018-07-26T10:05:51.780Z,1220
2018-07-26T10:06:51.728Z,1228
2018-07-26T10:07:51.841Z,1228
2018-07-26T10:08:51.882Z,1240
2018-07-26T10:09:51.914Z,1248
2018-07-26T10:10:51.946Z,1252
2018-07-26T10:11:51.970Z,1260
2018-07-26T10:12:51.741Z,1264
2018-07-26T10:13:52.035Z,1272
2018-07-26T10:14:52.080Z,1292
2018-07-26T10:15:51.935Z,1296
2018-07-26T10:16:51.615Z,1304
2018-07-26T10:17:51.643Z,1312
2018-07-26T10:18:51.938Z,1324
2018-07-26T10:19:51.963Z,1336
2018-07-26T10:20:52.011Z,1352
2018-07-26T10:21:52.031Z,1360
2018-07-26T10:22:51.807Z,1368
2018-07-26T10:23:52.363Z,1372
2018-07-26T10:24:52.391Z,1380
2018-07-26T10:25:52.423Z,1384
2018-07-26T10:26:52.459Z,1392
2018-07-26T10:27:52.697Z,1408
2018-07-26T10:28:52.293Z,1416
2018-07-26T10:29:52.296Z,1424
2018-07-26T10:30:52.065Z,1436
2018-07-26T10:31:52.366Z,1444
2018-07-26T10:32:52.654Z,1448
2018-07-26T10:33:52.690Z,1460
2018-07-26T10:34:52.721Z,1472
2018-07-26T10:35:52.750Z,1484
2018-07-26T10:36:52.519Z,1488
2018-07-26T10:37:52.558Z,1488
2018-07-26T10:38:52.854Z,1496
2018-07-26T10:39:52.883Z,1500
2018-07-26T10:40:52.650Z,1496
2018-07-26T10:41:52.685Z,1500
2018-07-26T10:42:52.985Z,1512
2018-07-26T10:43:52.755Z,1524
2018-07-26T10:44:52.781Z,1532
2018-07-26T10:45:53.088Z,1540
2018-07-26T10:46:52.855Z,1556
2018-07-26T10:47:53.143Z,1560
2018-07-26T10:48:53.178Z,1568
2018-07-26T10:49:53.006Z,1580
2018-07-26T10:50:52.990Z,1588
2018-07-26T10:51:52.498Z,1600
2018-07-26T10:52:53.053Z,1608
2018-07-26T10:53:53.349Z,1620
2018-07-26T10:54:53.379Z,1628
2018-07-26T10:55:53.419Z,1648
2018-07-26T10:56:53.502Z,1668
2018-07-26T10:57:53.485Z,1688
2018-07-26T10:58:52.992Z,1700
2018-07-26T10:59:53.553Z,1720
2018-07-26T11:00:53.577Z,1740
2018-07-26T11:01:53.359Z,1748
2018-07-26T11:02:53.646Z,1760
2018-07-26T11:03:53.705Z,1776
2018-07-26T11:04:53.713Z,1784
2018-07-26T11:05:53.754Z,1796
2018-07-26T11:06:53.261Z,1796
2018-07-26T11:07:53.574Z,1800
2018-07-26T11:08:53.596Z,1816
2018-07-26T11:09:53.372Z,1828
2018-07-26T11:10:53.660Z,1840
2018-07-26T11:11:53.697Z,1864
2018-07-26T11:12:53.816Z,1872
2018-07-26T11:13:53.764Z,1880
2018-07-26T11:14:53.802Z,1888
2018-07-26T11:15:53.833Z,1888
2018-07-26T11:16:53.870Z,1892
2018-07-26T11:17:54.158Z,1896
2018-07-26T11:18:53.680Z,1912
2018-07-26T11:19:53.968Z,1928
2018-07-26T11:20:54.259Z,1944
2018-07-26T11:21:54.036Z,1944
2018-07-26T11:22:54.330Z,1952
2018-07-26T11:23:54.371Z,1956
2018-07-26T11:24:54.406Z,1952
2018-07-26T11:25:53.920Z,1956
2018-07-26T11:26:53.954Z,1964
2018-07-26T11:27:54.249Z,1972
2018-07-26T11:28:54.025Z,1976
2018-07-26T11:29:54.727Z,1980
2018-07-26T11:30:54.349Z,1996
2018-07-26T11:31:54.646Z,2012
2018-07-26T11:32:54.694Z,2032
2018-07-26T11:33:54.719Z,2052
2018-07-26T11:34:54.756Z,2068
2018-07-26T11:35:54.662Z,2096
2018-07-26T11:36:54.732Z,2120
2018-07-26T11:37:54.765Z,2124
2018-07-26T11:38:54.893Z,2140
2018-07-26T11:39:54.684Z,2156
2018-07-26T11:40:54.962Z,2172
2018-07-26T11:41:55.263Z,2188
2018-07-26T11:42:54.773Z,2208
2018-07-26T11:43:54.859Z,2220
2018-07-26T11:44:54.864Z,2244
2018-07-26T11:45:54.884Z,2256
2018-07-26T11:46:55.175Z,2264
2018-07-26T11:47:55.213Z,2272
2018-07-26T11:48:54.994Z,2296
2018-07-26T11:49:55.030Z,2312
2018-07-26T11:50:55.328Z,2332
2018-07-26T11:51:54.831Z,2344
2018-07-26T11:52:55.661Z,2360
2018-07-26T11:53:55.215Z,2384
2018-07-26T11:54:55.465Z,2404
2018-07-26T11:55:54.987Z,2412
2018-07-26T11:56:55.735Z,2420
2018-07-26T11:57:55.060Z,2432
2018-07-26T11:58:55.603Z,2440
2018-07-26T11:59:55.385Z,2452
2018-07-26T12:00:55.694Z,2464
2018-07-26T12:01:55.729Z,2484
2018-07-26T12:02:55.492Z,2500
2018-07-26T12:03:55.269Z,2516
2018-07-26T12:04:55.569Z,2528
2018-07-26T12:05:55.339Z,2540
2018-07-26T12:06:55.373Z,2548
2018-07-26T12:07:55.413Z,2560
2018-07-26T12:08:55.203Z,2572
2018-07-26T12:09:56.008Z,2596
2018-07-26T12:10:55.782Z,2604
2018-07-26T12:11:56.082Z,2624
2018-07-26T12:12:56.114Z,2632
2018-07-26T12:13:56.155Z,2636
2018-07-26T12:14:56.208Z,2644
2018-07-26T12:15:55.709Z,2652
2018-07-26T12:16:55.734Z,2680
2018-07-26T12:17:56.051Z,2692
2018-07-26T12:18:56.073Z,2696
2018-07-26T12:19:56.105Z,2708
2018-07-26T12:20:56.454Z,2720
2018-07-26T12:21:56.444Z,2732
2018-07-26T12:22:56.216Z,2740
2018-07-26T12:23:56.514Z,2748
2018-07-26T12:24:56.290Z,2752
2018-07-26T12:25:56.328Z,2764
2018-07-26T12:26:56.753Z,2780
2018-07-26T12:27:56.661Z,2776
2018-07-26T12:28:56.440Z,2784
2018-07-26T12:29:56.736Z,2780
2018-07-26T12:30:56.522Z,2772
2018-07-26T12:31:56.806Z,2772
2018-07-26T12:32:56.847Z,2792
2018-07-26T12:33:56.883Z,2792
2018-07-26T12:34:56.660Z,2808
2018-07-26T12:35:56.887Z,2828
2018-07-26T12:36:56.469Z,2848
2018-07-26T12:37:56.779Z,2856
2018-07-26T12:38:56.810Z,2868
2018-07-26T12:39:57.119Z,2876
2018-07-26T12:40:57.144Z,2888
2018-07-26T12:41:57.181Z,2884
2018-07-26T12:42:57.220Z,2884
2018-07-26T12:43:57.260Z,2884
2018-07-26T12:44:57.294Z,2900
2018-07-26T12:45:57.071Z,2916
2018-07-26T12:46:57.107Z,2932
2018-07-26T12:47:57.294Z,2948
2018-07-26T12:48:57.444Z,2936
2018-07-26T12:49:57.214Z,2940
2018-07-26T12:50:57.512Z,2948
2018-07-26T12:51:57.548Z,2940
2018-07-26T12:52:57.590Z,2928
2018-07-26T12:53:57.625Z,2916
2018-07-26T12:54:58.014Z,2900
2018-07-26T12:55:57.703Z,2892
2018-07-26T12:56:57.485Z,2896
2018-07-26T12:57:57.774Z,2896
2018-07-26T12:58:57.553Z,2904
2018-07-26T12:59:57.614Z,2892
2018-07-26T13:00:57.629Z,2884
2018-07-26T13:01:57.502Z,2876
2018-07-26T13:02:57.700Z,2868
2018-07-26T13:03:58.049Z,2868
2018-07-26T13:04:58.042Z,2864
2018-07-26T13:05:57.814Z,2872
2018-07-26T13:06:58.154Z,2876
2018-07-26T13:07:57.898Z,2876
2018-07-26T13:08:58.190Z,2884
2018-07-26T13:09:58.229Z,2892
2018-07-26T13:10:58.015Z,2892
2018-07-26T13:11:58.061Z,2888
2018-07-26T13:12:58.092Z,2900
2018-07-26T13:13:58.162Z,2900
2018-07-26T13:14:58.643Z,2916
2018-07-26T13:15:58.454Z,2940
2018-07-26T13:16:58.493Z,2948
2018-07-26T13:17:58.562Z,2964
2018-07-26T13:18:58.314Z,2984
2018-07-26T13:19:58.351Z,2996
2018-07-26T13:20:58.389Z,3008
2018-07-26T13:21:58.161Z,3032
2018-07-26T13:22:58.458Z,3052
2018-07-26T13:23:58.493Z,3068
2018-07-26T13:24:58.804Z,3080
2018-07-26T13:25:58.573Z,3104
2018-07-26T13:26:58.346Z,3120
2018-07-26T13:27:58.910Z,3152
2018-07-26T13:28:58.949Z,3180
2018-07-26T13:29:58.982Z,3196
2018-07-26T13:30:59.019Z,3204
2018-07-26T13:31:58.799Z,3220
2018-07-26T13:32:58.836Z,3240
2018-07-26T13:33:58.876Z,3252
2018-07-26T13:34:58.910Z,3280
2018-07-26T13:35:59.217Z,3284
2018-07-26T13:36:58.995Z,3304
2018-07-26T13:37:59.289Z,3332
2018-07-26T13:38:59.324Z,3348
2018-07-26T13:39:59.718Z,3360
2018-07-26T13:40:59.143Z,3364
2018-07-26T13:41:59.187Z,3380
2018-07-26T13:42:59.232Z,3404
2018-07-26T13:43:59.527Z,3420
2018-07-26T13:44:59.549Z,3432
2018-07-26T13:45:59.343Z,3448
2018-07-26T13:46:59.114Z,3464
2018-07-26T13:47:59.412Z,3484
2018-07-26T13:48:59.709Z,3512
2018-07-26T13:49:59.751Z,3564
2018-07-26T13:50:59.533Z,3588
2018-07-26T13:51:59.564Z,3600
2018-07-26T13:52:59.360Z,3604